Terminal Aerodrome Forecast
Issued by NWS

Home | Current Version | Previous Version | Text Only | Print | Product List | Glossary On
Versions: 1 2 3 4 5 6 7 8 9 10 11 12
582
FTUS42 KMLB 280538
TAFISM
TAF
KISM 280538Z 2806/2906 VRB02KT P6SM SKC
     FM281500 VRB05KT P6SM FEW040
     FM282200 10007KT P6SM SCT060
     FM290300 18003KT P6SM FEW045=

USA.gov is the U.S. government's official web portal to all federal, state and local government web resources and services.